sensor_id;sensor_type;location;lat;lon;timestamp;temperature;humidity
24226;DHT22;51462;51.422;5.514;2023-04-25T00:02:12;7.50;99.90
24226;DHT22;51462;51.422;5.514;2023-04-25T00:04:38;7.50;99.90
24226;DHT22;51462;51.422;5.514;2023-04-25T00:07:04;7.40;99.90
24226;DHT22;51462;51.422;5.514;2023-04-25T00:09:30;7.40;99.90
24226;DHT22;51462;51.422;5.514;2023-04-25T00:11:55;7.60;99.90
24226;DHT22;51462;51.422;5.514;2023-04-25T00:14:21;7.60;99.90
24226;DHT22;51462;51.422;5.514;2023-04-25T00:16:48;7.50;99.90
24226;DHT22;51462;51.422;5.514;2023-04-25T00:19:13;7.70;99.90
24226;DHT22;51462;51.422;5.514;2023-04-25T00:21:39;7.60;99.90
24226;DHT22;51462;51.422;5.514;2023-04-25T00:24:06;7.40;99.90
24226;DHT22;51462;51.422;5.514;2023-04-25T00:26:34;7.50;99.90
24226;DHT22;51462;51.422;5.514;2023-04-25T00:29:01;7.70;99.90
24226;DHT22;51462;51.422;5.514;2023-04-25T00:31:26;7.70;99.90
24226;DHT22;51462;51.422;5.514;2023-04-25T00:33:52;7.80;99.90
24226;DHT22;51462;51.422;5.514;2023-04-25T00:36:18;7.60;99.90
24226;DHT22;51462;51.422;5.514;2023-04-25T00:38:44;7.40;99.90
24226;DHT22;51462;51.422;5.514;2023-04-25T00:41:10;7.20;99.90
24226;DHT22;51462;51.422;5.514;2023-04-25T00:43:37;7.50;99.90
24226;DHT22;51462;51.422;5.514;2023-04-25T00:46:02;7.40;99.90
24226;DHT22;51462;51.422;5.514;2023-04-25T00:48:28;7.30;99.90
24226;DHT22;51462;51.422;5.514;2023-04-25T00:50:57;7.20;99.90
24226;DHT22;51462;51.422;5.514;2023-04-25T00:53:24;7.20;99.90
24226;DHT22;51462;51.422;5.514;2023-04-25T00:55:51;7.20;99.90
24226;DHT22;51462;51.422;5.514;2023-04-25T00:58:18;7.10;99.90
24226;DHT22;51462;51.422;5.514;2023-04-25T01:00:45;7.20;99.90
24226;DHT22;51462;51.422;5.514;2023-04-25T01:03:12;7.10;99.90
24226;DHT22;51462;51.422;5.514;2023-04-25T01:05:39;7.00;99.90
24226;DHT22;51462;51.422;5.514;2023-04-25T01:08:05;7.00;99.90
24226;DHT22;51462;51.422;5.514;2023-04-25T01:10:31;7.20;99.90
24226;DHT22;51462;51.422;5.514;2023-04-25T01:12:56;7.00;99.90
24226;DHT22;51462;51.422;5.514;2023-04-25T01:15:22;7.30;99.90
24226;DHT22;51462;51.422;5.514;2023-04-25T01:17:47;7.30;99.90
24226;DHT22;51462;51.422;5.514;2023-04-25T01:20:14;7.30;99.90
24226;DHT22;51462;51.422;5.514;2023-04-25T01:22:41;7.20;99.90
24226;DHT22;51462;51.422;5.514;2023-04-25T01:25:07;7.20;99.90
24226;DHT22;51462;51.422;5.514;2023-04-25T01:27:33;7.00;99.90
24226;DHT22;51462;51.422;5.514;2023-04-25T01:30:00;7.00;99.90
24226;DHT22;51462;51.422;5.514;2023-04-25T01:32:26;7.00;99.90
24226;DHT22;51462;51.422;5.514;2023-04-25T01:34:52;7.10;99.90
24226;DHT22;51462;51.422;5.514;2023-04-25T01:37:18;6.90;99.90
24226;DHT22;51462;51.422;5.514;2023-04-25T01:39:44;7.00;99.90
24226;DHT22;51462;51.422;5.514;2023-04-25T01:42:10;6.90;99.90
24226;DHT22;51462;51.422;5.514;2023-04-25T01:44:35;6.80;99.90
24226;DHT22;51462;51.422;5.514;2023-04-25T01:47:01;6.80;99.90
24226;DHT22;51462;51.422;5.514;2023-04-25T01:49:26;6.80;99.90
24226;DHT22;51462;51.422;5.514;2023-04-25T01:51:52;6.80;99.90
24226;DHT22;51462;51.422;5.514;2023-04-25T01:54:18;6.80;99.90
24226;DHT22;51462;51.422;5.514;2023-04-25T01:56:50;6.70;99.90
24226;DHT22;51462;51.422;5.514;2023-04-25T01:59:15;6.80;99.90
24226;DHT22;51462;51.422;5.514;2023-04-25T02:01:41;6.70;99.90
24226;DHT22;51462;51.422;5.514;2023-04-25T02:04:06;6.60;99.90
24226;DHT22;51462;51.422;5.514;2023-04-25T02:06:32;6.60;99.90
24226;DHT22;51462;51.422;5.514;2023-04-25T02:08:57;6.60;99.90
24226;DHT22;51462;51.422;5.514;2023-04-25T02:11:23;6.60;99.90
24226;DHT22;51462;51.422;5.514;2023-04-25T02:13:49;6.70;99.90
24226;DHT22;51462;51.422;5.514;2023-04-25T02:16:14;6.70;99.90
24226;DHT22;51462;51.422;5.514;2023-04-25T02:18:40;6.60;99.90
24226;DHT22;51462;51.422;5.514;2023-04-25T02:21:05;6.50;99.90
24226;DHT22;51462;51.422;5.514;2023-04-25T02:23:32;6.60;99.90
24226;DHT22;51462;51.422;5.514;2023-04-25T02:25:58;6.60;99.90
24226;DHT22;51462;51.422;5.514;2023-04-25T02:28:24;6.60;99.90
24226;DHT22;51462;51.422;5.514;2023-04-25T02:30:51;6.70;99.90
24226;DHT22;51462;51.422;5.514;2023-04-25T02:33:17;6.70;99.90
24226;DHT22;51462;51.422;5.514;2023-04-25T02:35:42;6.70;99.90
24226;DHT22;51462;51.422;5.514;2023-04-25T02:38:08;6.90;99.90
24226;DHT22;51462;51.422;5.514;2023-04-25T02:40:33;7.00;99.90
24226;DHT22;51462;51.422;5.514;2023-04-25T02:42:59;7.00;99.90
24226;DHT22;51462;51.422;5.514;2023-04-25T02:45:25;7.00;99.90
24226;DHT22;51462;51.422;5.514;2023-04-25T02:47:50;7.00;99.90
24226;DHT22;51462;51.422;5.514;2023-04-25T02:50:16;6.90;99.90
24226;DHT22;51462;51.422;5.514;2023-04-25T02:52:41;6.70;99.90
24226;DHT22;51462;51.422;5.514;2023-04-25T02:55:07;6.80;99.90
24226;DHT22;51462;51.422;5.514;2023-04-25T02:57:33;6.80;99.90
24226;DHT22;51462;51.422;5.514;2023-04-25T02:59:58;6.70;99.90
24226;DHT22;51462;51.422;5.514;2023-04-25T03:02:24;6.80;99.90
24226;DHT22;51462;51.422;5.514;2023-04-25T03:04:49;6.70;99.90
24226;DHT22;51462;51.422;5.514;2023-04-25T03:07:15;6.80;99.90
24226;DHT22;51462;51.422;5.514;2023-04-25T03:09:41;6.60;99.90
24226;DHT22;51462;51.422;5.514;2023-04-25T03:12:06;6.50;99.90
24226;DHT22;51462;51.422;5.514;2023-04-25T03:14:32;6.70;99.90
24226;DHT22;51462;51.422;5.514;2023-04-25T03:16:58;6.60;99.90
24226;DHT22;51462;51.422;5.514;2023-04-25T03:19:24;6.50;99.90
24226;DHT22;51462;51.422;5.514;2023-04-25T03:21:49;6.60;99.90
24226;DHT22;51462;51.422;5.514;2023-04-25T03:24:15;6.50;99.90
24226;DHT22;51462;51.422;5.514;2023-04-25T03:26:40;6.50;99.90
24226;DHT22;51462;51.422;5.514;2023-04-25T03:29:06;6.90;99.90
24226;DHT22;51462;51.422;5.514;2023-04-25T03:31:31;6.70;99.90
24226;DHT22;51462;51.422;5.514;2023-04-25T03:33:57;6.80;99.90
24226;DHT22;51462;51.422;5.514;2023-04-25T03:36:22;6.60;99.90
24226;DHT22;51462;51.422;5.514;2023-04-25T03:38:48;6.70;99.90
24226;DHT22;51462;51.422;5.514;2023-04-25T03:41:14;6.80;99.90
24226;DHT22;51462;51.422;5.514;2023-04-25T03:43:39;6.60;99.90
24226;DHT22;51462;51.422;5.514;2023-04-25T03:46:05;6.50;99.90
24226;DHT22;51462;51.422;5.514;2023-04-25T03:48:30;6.60;99.90
24226;DHT22;51462;51.422;5.514;2023-04-25T03:50:56;6.60;99.90
24226;DHT22;51462;51.422;5.514;2023-04-25T03:53:22;6.60;99.90
24226;DHT22;51462;51.422;5.514;2023-04-25T03:55:47;6.70;99.90
24226;DHT22;51462;51.422;5.514;2023-04-25T03:58:13;6.60;99.90
24226;DHT22;51462;51.422;5.514;2023-04-25T04:00:38;6.60;99.90
24226;DHT22;51462;51.422;5.514;2023-04-25T04:03:04;6.40;99.90
24226;DHT22;51462;51.422;5.514;2023-04-25T04:05:30;6.40;99.90
24226;DHT22;51462;51.422;5.514;2023-04-25T04:07:56;6.40;99.90
24226;DHT22;51462;51.422;5.514;2023-04-25T04:10:22;6.40;99.90
24226;DHT22;51462;51.422;5.514;2023-04-25T04:12:47;6.40;99.90
24226;DHT22;51462;51.422;5.514;2023-04-25T04:15:13;6.40;99.90
24226;DHT22;51462;51.422;5.514;2023-04-25T04:17:39;6.50;99.90
24226;DHT22;51462;51.422;5.514;2023-04-25T04:20:05;6.40;99.90
24226;DHT22;51462;51.422;5.514;2023-04-25T04:22:31;6.40;99.90
24226;DHT22;51462;51.422;5.514;2023-04-25T04:24:57;6.40;99.90
24226;DHT22;51462;51.422;5.514;2023-04-25T04:27:23;6.50;99.90
24226;DHT22;51462;51.422;5.514;2023-04-25T04:29:49;6.60;99.90
24226;DHT22;51462;51.422;5.514;2023-04-25T04:32:15;6.50;99.90
24226;DHT22;51462;51.422;5.514;2023-04-25T04:34:41;6.40;99.90
24226;DHT22;51462;51.422;5.514;2023-04-25T04:37:07;6.50;99.90
24226;DHT22;51462;51.422;5.514;2023-04-25T04:39:33;6.50;99.90
24226;DHT22;51462;51.422;5.514;2023-04-25T04:41:59;6.50;99.90
24226;DHT22;51462;51.422;5.514;2023-04-25T04:44:27;6.70;99.90
24226;DHT22;51462;51.422;5.514;2023-04-25T04:46:52;6.90;99.90
24226;DHT22;51462;51.422;5.514;2023-04-25T04:49:18;6.70;99.90
24226;DHT22;51462;51.422;5.514;2023-04-25T04:51:43;6.70;99.90
24226;DHT22;51462;51.422;5.514;2023-04-25T04:54:13;6.70;99.90
24226;DHT22;51462;51.422;5.514;2023-04-25T04:56:39;6.60;99.90
24226;DHT22;51462;51.422;5.514;2023-04-25T04:59:04;6.70;99.90
24226;DHT22;51462;51.422;5.514;2023-04-25T05:01:30;6.60;99.90
24226;DHT22;51462;51.422;5.514;2023-04-25T05:03:56;6.80;99.90
24226;DHT22;51462;51.422;5.514;2023-04-25T05:06:26;6.90;99.90
24226;DHT22;51462;51.422;5.514;2023-04-25T05:08:52;6.90;99.90
24226;DHT22;51462;51.422;5.514;2023-04-25T05:11:18;6.80;99.90
24226;DHT22;51462;51.422;5.514;2023-04-25T05:13:44;6.70;99.90
24226;DHT22;51462;51.422;5.514;2023-04-25T05:16:11;7.00;99.90
24226;DHT22;51462;51.422;5.514;2023-04-25T05:18:37;6.90;99.90
24226;DHT22;51462;51.422;5.514;2023-04-25T05:21:03;6.70;99.90
24226;DHT22;51462;51.422;5.514;2023-04-25T05:23:28;7.10;99.90
24226;DHT22;51462;51.422;5.514;2023-04-25T05:25:55;6.90;99.90
24226;DHT22;51462;51.422;5.514;2023-04-25T05:28:21;7.10;99.90
24226;DHT22;51462;51.422;5.514;2023-04-25T05:30:46;7.20;99.90
24226;DHT22;51462;51.422;5.514;2023-04-25T05:33:12;7.20;99.90
24226;DHT22;51462;51.422;5.514;2023-04-25T05:35:38;7.20;99.90
24226;DHT22;51462;51.422;5.514;2023-04-25T05:38:03;7.40;99.90
24226;DHT22;51462;51.422;5.514;2023-04-25T05:40:29;7.20;99.90
24226;DHT22;51462;51.422;5.514;2023-04-25T05:42:54;7.20;99.90
24226;DHT22;51462;51.422;5.514;2023-04-25T05:45:20;7.40;99.90
24226;DHT22;51462;51.422;5.514;2023-04-25T05:47:45;7.50;99.90
24226;DHT22;51462;51.422;5.514;2023-04-25T05:50:11;7.30;99.90
24226;DHT22;51462;51.422;5.514;2023-04-25T05:52:36;7.30;99.90
24226;DHT22;51462;51.422;5.514;2023-04-25T05:55:02;7.30;99.90
24226;DHT22;51462;51.422;5.514;2023-04-25T05:57:28;7.20;99.90
24226;DHT22;51462;51.422;5.514;2023-04-25T05:59:53;7.30;99.90
24226;DHT22;51462;51.422;5.514;2023-04-25T06:02:20;7.80;99.90
24226;DHT22;51462;51.422;5.514;2023-04-25T06:04:47;7.80;99.90
24226;DHT22;51462;51.422;5.514;2023-04-25T06:07:13;7.80;99.90
24226;DHT22;51462;51.422;5.514;2023-04-25T06:09:39;7.70;99.90
24226;DHT22;51462;51.422;5.514;2023-04-25T06:12:05;7.70;99.90
24226;DHT22;51462;51.422;5.514;2023-04-25T06:14:31;7.90;99.90
24226;DHT22;51462;51.422;5.514;2023-04-25T06:16:57;8.10;99.90
24226;DHT22;51462;51.422;5.514;2023-04-25T06:19:22;7.70;99.90
24226;DHT22;51462;51.422;5.514;2023-04-25T06:21:48;7.90;99.90
24226;DHT22;51462;51.422;5.514;2023-04-25T06:24:14;7.60;99.90
24226;DHT22;51462;51.422;5.514;2023-04-25T06:26:39;7.90;99.90
24226;DHT22;51462;51.422;5.514;2023-04-25T06:29:05;8.30;99.90
24226;DHT22;51462;51.422;5.514;2023-04-25T06:31:30;7.90;99.90
24226;DHT22;51462;51.422;5.514;2023-04-25T06:33:58;7.60;99.90
24226;DHT22;51462;51.422;5.514;2023-04-25T06:36:23;7.60;99.90
24226;DHT22;51462;51.422;5.514;2023-04-25T06:38:51;8.00;99.90
24226;DHT22;51462;51.422;5.514;2023-04-25T06:41:17;8.70;99.90
24226;DHT22;51462;51.422;5.514;2023-04-25T06:43:43;8.40;99.90
24226;DHT22;51462;51.422;5.514;2023-04-25T06:46:08;8.20;99.90
24226;DHT22;51462;51.422;5.514;2023-04-25T06:48:34;8.40;99.90
24226;DHT22;51462;51.422;5.514;2023-04-25T06:51:00;8.30;99.90
24226;DHT22;51462;51.422;5.514;2023-04-25T06:53:25;8.90;99.90
24226;DHT22;51462;51.422;5.514;2023-04-25T06:55:51;8.60;99.90
24226;DHT22;51462;51.422;5.514;2023-04-25T06:58:17;8.50;99.90
24226;DHT22;51462;51.422;5.514;2023-04-25T07:00:42;8.20;99.90
24226;DHT22;51462;51.422;5.514;2023-04-25T07:03:08;8.50;99.90
24226;DHT22;51462;51.422;5.514;2023-04-25T07:05:33;8.70;99.90
24226;DHT22;51462;51.422;5.514;2023-04-25T07:07:59;8.50;99.90
24226;DHT22;51462;51.422;5.514;2023-04-25T07:10:25;9.00;99.90
24226;DHT22;51462;51.422;5.514;2023-04-25T07:12:51;9.00;99.90
24226;DHT22;51462;51.422;5.514;2023-04-25T07:15:16;9.30;99.90
24226;DHT22;51462;51.422;5.514;2023-04-25T07:17:42;9.10;99.90
24226;DHT22;51462;51.422;5.514;2023-04-25T07:20:08;8.90;99.90
24226;DHT22;51462;51.422;5.514;2023-04-25T07:22:34;9.10;99.90
24226;DHT22;51462;51.422;5.514;2023-04-25T07:25:00;9.00;99.90
24226;DHT22;51462;51.422;5.514;2023-04-25T07:27:26;8.80;99.90
24226;DHT22;51462;51.422;5.514;2023-04-25T07:29:52;8.90;99.90
24226;DHT22;51462;51.422;5.514;2023-04-25T07:32:17;8.80;99.90
24226;DHT22;51462;51.422;5.514;2023-04-25T07:34:43;9.00;99.90
24226;DHT22;51462;51.422;5.514;2023-04-25T07:37:08;9.20;99.90
24226;DHT22;51462;51.422;5.514;2023-04-25T07:39:34;9.20;99.90
24226;DHT22;51462;51.422;5.514;2023-04-25T07:42:00;8.90;99.90
24226;DHT22;51462;51.422;5.514;2023-04-25T07:44:27;9.00;99.90
24226;DHT22;51462;51.422;5.514;2023-04-25T07:46:53;9.00;99.90
24226;DHT22;51462;51.422;5.514;2023-04-25T07:49:18;9.10;99.90
24226;DHT22;51462;51.422;5.514;2023-04-25T07:51:44;9.30;99.90
24226;DHT22;51462;51.422;5.514;2023-04-25T07:54:13;9.50;99.90
24226;DHT22;51462;51.422;5.514;2023-04-25T07:56:39;9.60;99.90
24226;DHT22;51462;51.422;5.514;2023-04-25T07:59:04;9.70;99.90
24226;DHT22;51462;51.422;5.514;2023-04-25T08:01:30;9.60;99.90
24226;DHT22;51462;51.422;5.514;2023-04-25T08:03:56;9.40;99.90
24226;DHT22;51462;51.422;5.514;2023-04-25T08:06:21;9.90;99.90
24226;DHT22;51462;51.422;5.514;2023-04-25T08:08:47;10.20;99.90
24226;DHT22;51462;51.422;5.514;2023-04-25T08:11:12;10.10;99.90
24226;DHT22;51462;51.422;5.514;2023-04-25T08:13:38;9.90;99.90
24226;DHT22;51462;51.422;5.514;2023-04-25T08:16:03;9.80;99.90
24226;DHT22;51462;51.422;5.514;2023-04-25T08:18:29;10.00;99.90
24226;DHT22;51462;51.422;5.514;2023-04-25T08:20:54;9.90;99.90
24226;DHT22;51462;51.422;5.514;2023-04-25T08:23:20;9.90;99.90
24226;DHT22;51462;51.422;5.514;2023-04-25T08:25:46;9.80;99.90
24226;DHT22;51462;51.422;5.514;2023-04-25T08:28:11;9.50;99.90
24226;DHT22;51462;51.422;5.514;2023-04-25T08:30:37;9.40;99.90
24226;DHT22;51462;51.422;5.514;2023-04-25T08:33:02;9.90;99.90
24226;DHT22;51462;51.422;5.514;2023-04-25T08:35:28;10.00;99.90
24226;DHT22;51462;51.422;5.514;2023-04-25T08:37:54;10.10;99.90
24226;DHT22;51462;51.422;5.514;2023-04-25T08:40:22;10.20;99.90
24226;DHT22;51462;51.422;5.514;2023-04-25T08:42:54;10.10;99.90
24226;DHT22;51462;51.422;5.514;2023-04-25T08:45:20;9.50;99.90
24226;DHT22;51462;51.422;5.514;2023-04-25T08:47:47;9.60;99.90
24226;DHT22;51462;51.422;5.514;2023-04-25T08:50:14;9.50;99.90
24226;DHT22;51462;51.422;5.514;2023-04-25T08:52:44;9.50;99.90
24226;DHT22;51462;51.422;5.514;2023-04-25T08:55:13;9.40;99.90
24226;DHT22;51462;51.422;5.514;2023-04-25T08:57:43;10.00;99.90
24226;DHT22;51462;51.422;5.514;2023-04-25T09:00:10;9.80;99.90
24226;DHT22;51462;51.422;5.514;2023-04-25T09:02:37;9.80;99.90
24226;DHT22;51462;51.422;5.514;2023-04-25T09:05:02;9.80;99.90
24226;DHT22;51462;51.422;5.514;2023-04-25T09:07:30;9.90;99.90
24226;DHT22;51462;51.422;5.514;2023-04-25T09:09:55;9.80;99.90
24226;DHT22;51462;51.422;5.514;2023-04-25T09:12:21;9.70;99.90
24226;DHT22;51462;51.422;5.514;2023-04-25T09:15:07;9.90;99.90
24226;DHT22;51462;51.422;5.514;2023-04-25T09:17:33;9.90;99.90
24226;DHT22;51462;51.422;5.514;2023-04-25T09:20:06;10.10;99.90
24226;DHT22;51462;51.422;5.514;2023-04-25T09:22:32;10.20;99.90
24226;DHT22;51462;51.422;5.514;2023-04-25T09:25:03;10.20;99.90
24226;DHT22;51462;51.422;5.514;2023-04-25T09:27:29;10.00;99.90
24226;DHT22;51462;51.422;5.514;2023-04-25T09:29:58;10.30;99.90
24226;DHT22;51462;51.422;5.514;2023-04-25T09:32:27;10.60;99.90
24226;DHT22;51462;51.422;5.514;2023-04-25T09:34:54;10.50;99.90
24226;DHT22;51462;51.422;5.514;2023-04-25T09:37:25;10.50;99.90
24226;DHT22;51462;51.422;5.514;2023-04-25T09:39:56;10.40;99.90
24226;DHT22;51462;51.422;5.514;2023-04-25T09:42:23;10.60;99.90
24226;DHT22;51462;51.422;5.514;2023-04-25T09:44:51;10.60;99.90
24226;DHT22;51462;51.422;5.514;2023-04-25T09:47:18;10.80;99.90
24226;DHT22;51462;51.422;5.514;2023-04-25T09:49:43;10.50;99.90
24226;DHT22;51462;51.422;5.514;2023-04-25T09:52:16;10.90;99.90
24226;DHT22;51462;51.422;5.514;2023-04-25T09:54:43;10.90;99.90
24226;DHT22;51462;51.422;5.514;2023-04-25T09:57:29;11.10;99.90
24226;DHT22;51462;51.422;5.514;2023-04-25T09:59:55;11.10;99.90
24226;DHT22;51462;51.422;5.514;2023-04-25T10:02:26;11.00;99.90
24226;DHT22;51462;51.422;5.514;2023-04-25T10:04:54;11.10;99.90
24226;DHT22;51462;51.422;5.514;2023-04-25T10:07:25;10.90;99.90
24226;DHT22;51462;51.422;5.514;2023-04-25T10:09:58;10.80;99.90
24226;DHT22;51462;51.422;5.514;2023-04-25T10:12:28;11.10;99.90
24226;DHT22;51462;51.422;5.514;2023-04-25T10:14:54;11.10;99.90
24226;DHT22;51462;51.422;5.514;2023-04-25T10:17:20;11.20;99.90
24226;DHT22;51462;51.422;5.514;2023-04-25T10:19:49;11.50;99.90
24226;DHT22;51462;51.422;5.514;2023-04-25T10:22:18;11.60;99.90
24226;DHT22;51462;51.422;5.514;2023-04-25T10:24:46;11.60;99.90
24226;DHT22;51462;51.422;5.514;2023-04-25T10:27:12;11.60;99.90
24226;DHT22;51462;51.422;5.514;2023-04-25T10:29:37;11.60;99.90
24226;DHT22;51462;51.422;5.514;2023-04-25T10:32:04;11.40;99.90
24226;DHT22;51462;51.422;5.514;2023-04-25T10:34:40;11.30;99.90
24226;DHT22;51462;51.422;5.514;2023-04-25T10:37:09;11.20;99.90
24226;DHT22;51462;51.422;5.514;2023-04-25T10:39:35;11.50;99.90
24226;DHT22;51462;51.422;5.514;2023-04-25T10:42:02;11.40;99.90
24226;DHT22;51462;51.422;5.514;2023-04-25T10:44:31;11.00;99.90
24226;DHT22;51462;51.422;5.514;2023-04-25T10:46:58;11.40;99.90
24226;DHT22;51462;51.422;5.514;2023-04-25T10:49:37;11.70;99.90
24226;DHT22;51462;51.422;5.514;2023-04-25T10:52:17;12.00;99.90
24226;DHT22;51462;51.422;5.514;2023-04-25T11:00:17;11.90;99.90
24226;DHT22;51462;51.422;5.514;2023-04-25T11:03:02;12.10;99.90
24226;DHT22;51462;51.422;5.514;2023-04-25T11:05:34;12.00;99.90
24226;DHT22;51462;51.422;5.514;2023-04-25T11:08:00;12.10;99.90
24226;DHT22;51462;51.422;5.514;2023-04-25T11:10:31;12.00;99.90
24226;DHT22;51462;51.422;5.514;2023-04-25T11:12:59;11.60;99.90
24226;DHT22;51462;51.422;5.514;2023-04-25T11:15:25;11.90;99.90
24226;DHT22;51462;51.422;5.514;2023-04-25T11:17:52;11.80;99.90
24226;DHT22;51462;51.422;5.514;2023-04-25T11:20:18;11.80;99.90
24226;DHT22;51462;51.422;5.514;2023-04-25T11:22:45;12.00;99.90
24226;DHT22;51462;51.422;5.514;2023-04-25T11:25:12;12.20;99.90
24226;DHT22;51462;51.422;5.514;2023-04-25T11:27:51;12.50;99.90
24226;DHT22;51462;51.422;5.514;2023-04-25T11:30:17;12.40;99.90
24226;DHT22;51462;51.422;5.514;2023-04-25T11:32:43;12.30;99.90
24226;DHT22;51462;51.422;5.514;2023-04-25T11:35:10;11.90;99.90
24226;DHT22;51462;51.422;5.514;2023-04-25T11:37:36;11.80;99.90
24226;DHT22;51462;51.422;5.514;2023-04-25T11:40:03;11.90;99.90
24226;DHT22;51462;51.422;5.514;2023-04-25T11:42:30;11.70;99.90
24226;DHT22;51462;51.422;5.514;2023-04-25T11:44:55;11.50;99.90
24226;DHT22;51462;51.422;5.514;2023-04-25T11:47:30;11.10;99.90
24226;DHT22;51462;51.422;5.514;2023-04-25T11:49:58;11.30;99.90
24226;DHT22;51462;51.422;5.514;2023-04-25T11:52:34;11.50;99.90
24226;DHT22;51462;51.422;5.514;2023-04-25T11:55:00;11.40;99.90
24226;DHT22;51462;51.422;5.514;2023-04-25T11:57:25;11.70;99.90
24226;DHT22;51462;51.422;5.514;2023-04-25T11:59:51;10.80;99.90
24226;DHT22;51462;51.422;5.514;2023-04-25T12:02:26;11.00;99.90
24226;DHT22;51462;51.422;5.514;2023-04-25T12:04:52;11.10;99.90
24226;DHT22;51462;51.422;5.514;2023-04-25T12:07:17;11.20;99.90
24226;DHT22;51462;51.422;5.514;2023-04-25T12:09:51;11.30;99.90
24226;DHT22;51462;51.422;5.514;2023-04-25T12:12:18;11.40;99.90
24226;DHT22;51462;51.422;5.514;2023-04-25T12:14:47;11.90;99.90
24226;DHT22;51462;51.422;5.514;2023-04-25T12:17:17;12.00;99.90
24226;DHT22;51462;51.422;5.514;2023-04-25T12:19:42;12.10;99.90
24226;DHT22;51462;51.422;5.514;2023-04-25T12:22:20;12.20;99.90
24226;DHT22;51462;51.422;5.514;2023-04-25T12:24:46;12.20;99.90
24226;DHT22;51462;51.422;5.514;2023-04-25T12:27:15;12.00;99.90
24226;DHT22;51462;51.422;5.514;2023-04-25T12:29:53;11.80;99.90
24226;DHT22;51462;51.422;5.514;2023-04-25T12:32:19;11.90;99.90
24226;DHT22;51462;51.422;5.514;2023-04-25T12:34:44;12.20;99.90
24226;DHT22;51462;51.422;5.514;2023-04-25T12:37:10;12.40;99.90
24226;DHT22;51462;51.422;5.514;2023-04-25T12:39:36;12.60;99.90
24226;DHT22;51462;51.422;5.514;2023-04-25T12:42:02;12.30;99.90
24226;DHT22;51462;51.422;5.514;2023-04-25T12:44:28;12.00;99.90
24226;DHT22;51462;51.422;5.514;2023-04-25T12:46:54;12.20;99.90
24226;DHT22;51462;51.422;5.514;2023-04-25T12:49:20;12.00;99.90
24226;DHT22;51462;51.422;5.514;2023-04-25T12:51:46;12.20;99.90
24226;DHT22;51462;51.422;5.514;2023-04-25T12:54:12;12.60;99.90
24226;DHT22;51462;51.422;5.514;2023-04-25T12:56:38;12.90;99.90
24226;DHT22;51462;51.422;5.514;2023-04-25T12:59:04;13.10;99.90
24226;DHT22;51462;51.422;5.514;2023-04-25T13:01:29;13.00;99.90
24226;DHT22;51462;51.422;5.514;2023-04-25T13:03:55;12.90;99.90
24226;DHT22;51462;51.422;5.514;2023-04-25T13:06:21;13.00;99.90
24226;DHT22;51462;51.422;5.514;2023-04-25T13:08:47;13.00;99.90
24226;DHT22;51462;51.422;5.514;2023-04-25T13:11:12;12.40;99.90
24226;DHT22;51462;51.422;5.514;2023-04-25T13:13:40;12.60;99.90
24226;DHT22;51462;51.422;5.514;2023-04-25T13:16:06;12.50;99.90
24226;DHT22;51462;51.422;5.514;2023-04-25T13:18:32;12.30;99.90
24226;DHT22;51462;51.422;5.514;2023-04-25T13:20:58;12.80;99.90
24226;DHT22;51462;51.422;5.514;2023-04-25T13:23:26;12.80;99.90
24226;DHT22;51462;51.422;5.514;2023-04-25T13:25:52;12.50;99.90
24226;DHT22;51462;51.422;5.514;2023-04-25T13:28:17;12.50;99.90
24226;DHT22;51462;51.422;5.514;2023-04-25T13:30:43;12.80;99.90
24226;DHT22;51462;51.422;5.514;2023-04-25T13:33:09;12.90;99.90
24226;DHT22;51462;51.422;5.514;2023-04-25T13:35:36;12.60;99.90
24226;DHT22;51462;51.422;5.514;2023-04-25T13:38:02;13.10;99.90
24226;DHT22;51462;51.422;5.514;2023-04-25T13:40:28;13.30;99.90
24226;DHT22;51462;51.422;5.514;2023-04-25T13:42:54;13.90;99.90
24226;DHT22;51462;51.422;5.514;2023-04-25T13:45:20;14.60;99.90
24226;DHT22;51462;51.422;5.514;2023-04-25T13:47:46;14.70;99.90
24226;DHT22;51462;51.422;5.514;2023-04-25T13:50:11;15.40;99.90
24226;DHT22;51462;51.422;5.514;2023-04-25T13:52:37;15.60;99.90
24226;DHT22;51462;51.422;5.514;2023-04-25T13:55:03;15.80;99.90
24226;DHT22;51462;51.422;5.514;2023-04-25T13:57:30;16.10;99.90
24226;DHT22;51462;51.422;5.514;2023-04-25T13:59:56;16.80;99.90
24226;DHT22;51462;51.422;5.514;2023-04-25T14:02:22;16.20;99.90
24226;DHT22;51462;51.422;5.514;2023-04-25T14:04:48;16.80;99.90
24226;DHT22;51462;51.422;5.514;2023-04-25T14:07:14;17.10;99.90
24226;DHT22;51462;51.422;5.514;2023-04-25T14:09:43;17.10;97.90
24226;DHT22;51462;51.422;5.514;2023-04-25T14:12:09;16.20;95.00
24226;DHT22;51462;51.422;5.514;2023-04-25T14:14:34;17.30;99.90
24226;DHT22;51462;51.422;5.514;2023-04-25T14:17:00;17.80;95.80
24226;DHT22;51462;51.422;5.514;2023-04-25T14:19:26;18.50;99.90
24226;DHT22;51462;51.422;5.514;2023-04-25T14:21:51;17.50;99.10
24226;DHT22;51462;51.422;5.514;2023-04-25T14:24:17;17.50;97.60
24226;DHT22;51462;51.422;5.514;2023-04-25T14:26:43;16.80;96.20
24226;DHT22;51462;51.422;5.514;2023-04-25T14:29:09;14.90;99.90
24226;DHT22;51462;51.422;5.514;2023-04-25T14:31:37;15.00;99.90
24226;DHT22;51462;51.422;5.514;2023-04-25T14:34:04;14.30;99.90
24226;DHT22;51462;51.422;5.514;2023-04-25T14:36:30;14.00;99.90
24226;DHT22;51462;51.422;5.514;2023-04-25T14:38:56;14.30;99.90
24226;DHT22;51462;51.422;5.514;2023-04-25T14:41:22;14.00;99.90
24226;DHT22;51462;51.422;5.514;2023-04-25T14:43:48;14.00;99.90
24226;DHT22;51462;51.422;5.514;2023-04-25T14:46:14;13.90;99.90
24226;DHT22;51462;51.422;5.514;2023-04-25T14:48:40;14.30;99.90
24226;DHT22;51462;51.422;5.514;2023-04-25T14:51:05;14.30;99.90
24226;DHT22;51462;51.422;5.514;2023-04-25T14:53:31;14.20;99.90
24226;DHT22;51462;51.422;5.514;2023-04-25T14:55:57;13.90;99.90
24226;DHT22;51462;51.422;5.514;2023-04-25T14:58:23;13.90;99.90
24226;DHT22;51462;51.422;5.514;2023-04-25T15:00:48;14.10;99.90
24226;DHT22;51462;51.422;5.514;2023-04-25T15:03:14;14.30;99.90
24226;DHT22;51462;51.422;5.514;2023-04-25T15:05:41;13.90;99.90
24226;DHT22;51462;51.422;5.514;2023-04-25T15:08:07;13.70;99.90
24226;DHT22;51462;51.422;5.514;2023-04-25T15:10:33;14.50;99.90
24226;DHT22;51462;51.422;5.514;2023-04-25T15:12:59;14.60;99.90
24226;DHT22;51462;51.422;5.514;2023-04-25T15:15:25;15.00;99.90
24226;DHT22;51462;51.422;5.514;2023-04-25T15:17:50;15.30;99.90
24226;DHT22;51462;51.422;5.514;2023-04-25T15:20:16;15.10;99.90
24226;DHT22;51462;51.422;5.514;2023-04-25T15:22:43;14.90;99.90
24226;DHT22;51462;51.422;5.514;2023-04-25T15:25:10;15.20;99.90
24226;DHT22;51462;51.422;5.514;2023-04-25T15:27:39;15.60;99.90
24226;DHT22;51462;51.422;5.514;2023-04-25T15:30:10;15.80;99.90
24226;DHT22;51462;51.422;5.514;2023-04-25T15:32:37;15.60;99.90
24226;DHT22;51462;51.422;5.514;2023-04-25T15:35:05;15.40;99.90
24226;DHT22;51462;51.422;5.514;2023-04-25T15:37:34;14.90;99.90
24226;DHT22;51462;51.422;5.514;2023-04-25T15:40:03;15.00;99.90
24226;DHT22;51462;51.422;5.514;2023-04-25T15:42:42;15.20;99.90